Lakes Entrance Composite, Australia
Current Conditions -  °F | °C
As of 9:00 AM on Tuesday 23 Dec 2014 (Local Time) from YCOM Reporting Station
Overcast Overcast  
Wind Chill: 64°   Ceiling: 8100
Heat Index: 64°   Visibility: 6mi
Dew Point: 61°   Wind: 10mph
Humidity: 88%   Direction: 30°NNE
Pressure: 29.97"   Gusts: NA
Location:  37.87°S, 147.98°E
Report Text: YCOM 222200Z AUTO 03009KT 9999 // SCT070 OVC081 18/16 Q1015
Loading
Personal Weather Stations






























Interactive Weather Map New forecast layout! Learn more

10-Day Weather Forecast

Advertisements
Track Severe Weather on mobile